Estación Meteorológica Peña el Pijo (Robertgarden) [ 02/03/23 04:44:13 CET ]

Fecha Hora Presion(HPa) Temp (°C) Humedad % Rocio (°C) Viento ( m/s) Direccion Lluvia 1Hora(mm) Lluvia 24H(mm) LLuvia Total(mm)
2012-Aug-04 01:01:17 1013.400 19.0 33 2.3         176.12
2012-Aug-04 02:01:12 1013.300 16.8 38 2.3         176.12
2012-Aug-04 03:01:44 1012.500 14.4 44 2.2         176.12
2012-Aug-04 04:03:16 1012.100 13.1 49 2.6         176.12
2012-Aug-04 05:01:12 1012.000 12.4 49 1.9         176.12
2012-Aug-04 06:01:14 1011.900 12.3 50 2.2         176.12
2012-Aug-04 07:01:13 1011.800 12.6 49 2.1         176.12
2012-Aug-04 08:01:18 1011.800 12.9 52 3.2         176.12
2012-Aug-04 09:01:12 1011.800 19.5 46 7.5         176.12
2012-Aug-04 10:01:21 1011.500 26.4 32 9.6         176.12
2012-Aug-04 11:01:14 1011.400 30.1 21 5.3         176.12
2012-Aug-04 12:01:17 1011.100 32.6 18 4.8         176.12
2012-Aug-04 13:01:17 1010.800 34.0 14 2.0 2.0 SW     176.12
2012-Aug-04 14:01:11 1010.500 34.8 12 0.7         176.12
2012-Aug-04 15:01:13 1009.900 35.8 10 -0.5         176.12
2012-Aug-04 16:01:16 1009.600 37.0 10 0.4 0.1 S     176.12
2012-Aug-04 17:01:14 1009.100 37.3 10 0.6 1.5 SW     176.12
2012-Aug-04 18:01:16 1008.900 36.0 10 -0.4         176.12
2012-Aug-04 19:01:13 1008.500 34.4 10 -1.6 2.8 S     176.12
2012-Aug-04 20:01:17 1008.100 31.9 11 -2.5         176.12
2012-Aug-04 21:01:16 1008.000 28.2 15 -1.6         176.12
2012-Aug-04 22:01:16 1008.500 23.0 24 1.1         176.12
2012-Aug-04 23:01:12 1008.900 19.5 30 1.5         176.12

Temperatura Máxima:37°    Temperatura Mínima:12°
Presión Máxima:1013.400 Hpa    Presión Mínima:1008.000 Hpa


Volver